createdAt,value
2019-03-31T00:01:08.642Z,45.80
2019-03-31T00:03:37.446Z,45.80
2019-03-31T00:06:06.244Z,45.80
2019-03-31T00:08:34.932Z,45.70
2019-03-31T00:11:03.621Z,45.90
2019-03-31T00:13:32.168Z,45.80
2019-03-31T00:16:00.959Z,45.80
2019-03-31T00:18:29.549Z,45.80
2019-03-31T00:20:58.043Z,45.60
2019-03-31T00:23:26.582Z,45.90
2019-03-31T00:25:55.114Z,45.90
2019-03-31T00:28:23.751Z,46.10
2019-03-31T00:30:59.441Z,46.00
2019-03-31T00:33:32.049Z,46.10
2019-03-31T00:36:01.663Z,45.90
2019-03-31T00:38:33.469Z,45.90
2019-03-31T00:41:02.359Z,46.40
2019-03-31T00:43:31.146Z,46.40
2019-03-31T00:45:59.935Z,46.60
2019-03-31T00:48:28.608Z,46.40
2019-03-31T00:50:57.302Z,46.60
2019-03-31T00:53:25.768Z,46.60
2019-03-31T00:55:54.364Z,46.40
2019-03-31T00:58:23.142Z,46.30
2019-03-31T01:00:53.477Z,46.30
2019-03-31T01:03:22.267Z,46.30
2019-03-31T01:05:50.748Z,46.10
2019-03-31T01:08:19.431Z,46.50
2019-03-31T01:10:48.124Z,46.70
2019-03-31T01:13:18.128Z,47.30
2019-03-31T01:15:47.022Z,46.80
2019-03-31T01:18:15.903Z,47.40
2019-03-31T01:20:45.255Z,47.50
2019-03-31T01:23:14.107Z,47.60
2019-03-31T01:25:42.895Z,47.40
2019-03-31T01:28:11.694Z,47.80
2019-03-31T01:30:40.453Z,47.70
2019-03-31T01:33:09.034Z,48.10
2019-03-31T01:35:37.619Z,48.00
2019-03-31T01:38:06.403Z,48.70
2019-03-31T01:40:34.985Z,48.30
2019-03-31T01:43:03.568Z,48.50
2019-03-31T01:45:32.460Z,48.10
2019-03-31T01:48:01.247Z,48.60
2019-03-31T01:50:30.133Z,48.80
2019-03-31T01:52:58.841Z,49.10
2019-03-31T01:55:27.401Z,48.80
2019-03-31T01:57:56.187Z,48.80
2019-03-31T02:00:26.407Z,49.00
2019-03-31T02:02:55.296Z,49.40
2019-03-31T02:05:23.883Z,49.40
2019-03-31T02:07:52.461Z,49.30
2019-03-31T02:10:21.355Z,49.30
2019-03-31T02:12:50.039Z,49.50
2019-03-31T02:15:18.931Z,49.50
2019-03-31T02:17:47.711Z,50.10
2019-03-31T02:20:16.194Z,50.50
2019-03-31T02:22:44.877Z,50.50
2019-03-31T02:25:13.560Z,50.60
2019-03-31T02:27:42.141Z,50.80
2019-03-31T02:30:14.450Z,51.00
2019-03-31T02:32:43.727Z,50.90
2019-03-31T02:35:12.531Z,51.10
2019-03-31T02:37:41.436Z,50.90
2019-03-31T02:40:14.456Z,51.70
2019-03-31T02:42:43.081Z,51.60
2019-03-31T02:45:11.748Z,51.60
2019-03-31T02:47:40.630Z,51.60
2019-03-31T02:50:09.221Z,51.80
2019-03-31T02:52:38.006Z,51.60
2019-03-31T02:55:06.774Z,51.70
2019-03-31T02:57:35.468Z,51.70
2019-03-31T03:00:04.365Z,51.70
2019-03-31T03:02:41.326Z,52.40
2019-03-31T03:05:18.902Z,52.90
2019-03-31T03:07:35.746Z,52.30
2019-03-31T03:10:05.288Z,52.80
2019-03-31T03:12:34.144Z,52.50
2019-03-31T03:15:02.924Z,52.40
2019-03-31T03:17:31.708Z,53.20
2019-03-31T03:20:00.447Z,53.20
2019-03-31T03:22:29.193Z,52.80
2019-03-31T03:24:57.871Z,53.20
2019-03-31T03:27:26.653Z,53.80
2019-03-31T03:29:55.339Z,53.80
2019-03-31T03:32:24.058Z,54.40
2019-03-31T03:34:52.815Z,54.40
2019-03-31T03:37:21.604Z,54.40
2019-03-31T03:39:50.173Z,54.30
2019-03-31T03:42:18.757Z,54.40
2019-03-31T03:44:47.427Z,54.80
2019-03-31T03:47:16.231Z,55.40
2019-03-31T03:49:44.915Z,55.40
2019-03-31T03:52:13.419Z,55.80
2019-03-31T03:54:42.192Z,55.90
2019-03-31T03:57:10.867Z,56.10
2019-03-31T03:59:39.665Z,56.60
2019-03-31T04:02:08.423Z,56.10
2019-03-31T04:04:37.121Z,56.40
2019-03-31T04:07:05.704Z,56.90
2019-03-31T04:09:34.286Z,57.20
2019-03-31T04:12:03.086Z,57.10
2019-03-31T04:14:31.749Z,56.80
2019-03-31T04:17:00.552Z,56.80
2019-03-31T04:19:29.234Z,56.90
2019-03-31T04:21:57.920Z,56.90
2019-03-31T04:24:26.602Z,57.10
2019-03-31T04:26:55.384Z,57.20
2019-03-31T04:29:23.976Z,57.20
2019-03-31T04:31:52.758Z,57.30
2019-03-31T04:34:21.548Z,57.20
2019-03-31T04:36:50.238Z,57.20
2019-03-31T04:39:19.013Z,57.50
2019-03-31T04:41:47.560Z,58.00
2019-03-31T04:44:16.372Z,57.80
2019-03-31T04:46:45.170Z,58.00
2019-03-31T04:49:13.754Z,57.70
2019-03-31T04:51:42.215Z,58.00
2019-03-31T04:54:10.914Z,57.60
2019-03-31T04:56:39.497Z,57.30
2019-03-31T04:59:08.078Z,57.30
2019-03-31T05:01:36.855Z,57.30
2019-03-31T05:04:05.728Z,57.60
2019-03-31T05:06:34.655Z,57.80
2019-03-31T05:09:06.092Z,57.80
2019-03-31T05:11:35.001Z,57.40
2019-03-31T05:14:03.891Z,57.60
2019-03-31T05:16:32.674Z,57.50
2019-03-31T05:19:01.219Z,57.60
2019-03-31T05:21:29.812Z,57.60
2019-03-31T05:23:58.326Z,57.60
2019-03-31T05:26:27.093Z,58.00
2019-03-31T05:28:55.779Z,57.70
2019-03-31T05:31:24.460Z,57.90
2019-03-31T05:33:53.243Z,57.80
2019-03-31T05:36:21.827Z,57.70
2019-03-31T05:38:50.617Z,57.50
2019-03-31T05:41:19.204Z,58.00
2019-03-31T05:43:47.889Z,57.60
2019-03-31T05:46:16.493Z,57.50
2019-03-31T05:48:45.155Z,57.40
2019-03-31T05:51:13.941Z,57.30
2019-03-31T05:53:42.515Z,57.70
2019-03-31T05:56:11.099Z,57.50
2019-03-31T05:58:39.567Z,57.50
2019-03-31T06:01:08.266Z,57.80
2019-03-31T06:03:37.101Z,57.40
2019-03-31T06:06:05.944Z,57.60
2019-03-31T06:08:34.729Z,57.70
2019-03-31T06:11:03.627Z,57.70
2019-03-31T06:13:32.297Z,57.90
2019-03-31T06:16:00.986Z,58.00
2019-03-31T06:18:29.681Z,58.20
2019-03-31T06:20:58.458Z,58.10
2019-03-31T06:23:27.259Z,58.50
2019-03-31T06:25:55.921Z,58.00
2019-03-31T06:28:24.736Z,58.20
2019-03-31T06:30:53.388Z,58.30
2019-03-31T06:33:21.928Z,58.30
2019-03-31T06:35:50.461Z,58.10
2019-03-31T06:38:19.147Z,58.00
2019-03-31T06:40:52.244Z,58.10
2019-03-31T06:43:20.946Z,57.70
2019-03-31T06:45:49.404Z,58.00
2019-03-31T06:48:18.219Z,57.80
2019-03-31T06:50:46.804Z,57.80
2019-03-31T06:53:15.561Z,57.70
2019-03-31T06:55:44.123Z,57.20
2019-03-31T06:58:12.828Z,57.70
2019-03-31T07:00:41.620Z,57.70
2019-03-31T07:03:10.507Z,57.90
2019-03-31T07:05:39.199Z,57.70
2019-03-31T07:08:09.750Z,57.30
2019-03-31T07:10:38.598Z,57.60
2019-03-31T07:13:07.182Z,57.70
2019-03-31T07:15:35.765Z,57.70
2019-03-31T07:18:04.344Z,57.60
2019-03-31T07:20:33.237Z,57.50
2019-03-31T07:23:02.023Z,57.60
2019-03-31T07:25:30.710Z,57.50
2019-03-31T07:27:59.499Z,58.00
2019-03-31T07:30:28.182Z,57.20
2019-03-31T07:32:56.869Z,57.00
2019-03-31T07:35:25.759Z,57.00
2019-03-31T07:37:54.439Z,56.90
2019-03-31T07:40:23.380Z,56.80
2019-03-31T07:42:52.396Z,56.90
2019-03-31T07:45:21.323Z,57.00
2019-03-31T07:47:49.993Z,57.10
2019-03-31T07:50:18.983Z,57.10
2019-03-31T07:52:47.669Z,57.40
2019-03-31T07:55:16.215Z,57.50
2019-03-31T07:57:44.942Z,57.40
2019-03-31T08:00:16.227Z,57.70
2019-03-31T08:02:44.853Z,57.70
2019-03-31T08:05:13.547Z,57.80
2019-03-31T08:07:42.118Z,58.10
2019-03-31T08:10:11.315Z,58.20
2019-03-31T08:12:40.013Z,58.30
2019-03-31T08:15:12.105Z,58.20
2019-03-31T08:17:42.762Z,58.10
2019-03-31T08:20:17.331Z,58.00
2019-03-31T08:22:45.843Z,57.80
2019-03-31T08:25:14.497Z,58.30
2019-03-31T08:27:43.080Z,58.10
2019-03-31T08:30:13.312Z,58.00
2019-03-31T08:32:41.877Z,57.80
2019-03-31T08:35:10.664Z,57.60
2019-03-31T08:37:39.378Z,57.40
2019-03-31T08:40:09.931Z,57.20
2019-03-31T08:42:38.770Z,57.10
2019-03-31T08:45:07.601Z,57.00
2019-03-31T08:47:36.651Z,57.10
2019-03-31T08:50:06.987Z,57.00
2019-03-31T08:52:35.665Z,57.40
2019-03-31T08:55:04.763Z,57.10
2019-03-31T08:57:33.783Z,57.10
2019-03-31T09:00:02.543Z,57.00
2019-03-31T09:02:32.896Z,56.90
2019-03-31T09:05:06.164Z,56.60
2019-03-31T09:07:34.757Z,56.20
2019-03-31T09:10:04.242Z,56.10
2019-03-31T09:12:32.928Z,56.50
2019-03-31T09:15:01.600Z,56.80
2019-03-31T09:17:30.196Z,57.00
2019-03-31T09:19:58.865Z,57.00
2019-03-31T09:22:27.447Z,57.00
2019-03-31T09:24:55.994Z,57.50
2019-03-31T09:27:24.629Z,57.30
2019-03-31T09:29:53.295Z,57.40
2019-03-31T09:32:21.980Z,57.30
2019-03-31T09:34:50.769Z,57.30
2019-03-31T09:37:19.339Z,57.20
2019-03-31T09:39:47.931Z,57.20
2019-03-31T09:42:16.616Z,57.20
2019-03-31T09:44:45.513Z,57.20
2019-03-31T09:47:14.293Z,57.40
2019-03-31T09:49:42.982Z,57.40
2019-03-31T09:52:11.661Z,57.40
2019-03-31T09:54:41.269Z,57.90
2019-03-31T09:57:10.054Z,57.60
2019-03-31T09:59:38.669Z,57.00
2019-03-31T10:02:07.423Z,57.60
2019-03-31T10:04:36.219Z,56.80
2019-03-31T10:07:05.013Z,57.40
2019-03-31T10:09:33.887Z,56.60
2019-03-31T10:12:02.884Z,56.50
2019-03-31T10:14:31.884Z,56.60
2019-03-31T10:17:00.563Z,57.10
2019-03-31T10:19:29.357Z,56.30
2019-03-31T10:21:57.930Z,56.30
2019-03-31T10:24:26.717Z,56.60
2019-03-31T10:26:55.399Z,56.40
2019-03-31T10:29:24.088Z,56.20
2019-03-31T10:31:52.869Z,56.20
2019-03-31T10:34:21.667Z,57.20
2019-03-31T10:36:50.447Z,56.30
2019-03-31T10:39:19.239Z,55.90
2019-03-31T10:41:48.022Z,55.80
2019-03-31T10:44:16.808Z,55.90
2019-03-31T10:46:45.704Z,56.40
2019-03-31T10:49:14.483Z,56.30
2019-03-31T10:51:43.156Z,56.30
2019-03-31T10:54:11.855Z,55.70
2019-03-31T10:56:40.574Z,55.20
2019-03-31T10:59:09.317Z,54.50
2019-03-31T11:01:38.002Z,54.30
2019-03-31T11:04:06.586Z,55.40
2019-03-31T11:06:35.270Z,55.20
2019-03-31T11:09:05.902Z,54.80
2019-03-31T11:11:34.481Z,54.90
2019-03-31T11:14:03.160Z,54.90
2019-03-31T11:16:31.749Z,54.60
2019-03-31T11:19:00.432Z,55.00
2019-03-31T11:21:30.748Z,53.90
2019-03-31T11:23:59.442Z,54.50
2019-03-31T11:26:28.231Z,54.60
2019-03-31T11:28:57.171Z,54.20
2019-03-31T11:31:25.975Z,53.20
2019-03-31T11:33:54.794Z,53.50
2019-03-31T11:36:23.580Z,52.30
2019-03-31T11:38:52.367Z,51.90
2019-03-31T11:41:21.259Z,50.10
2019-03-31T11:43:49.942Z,50.60
2019-03-31T11:46:18.733Z,51.00
2019-03-31T11:48:47.521Z,50.10
2019-03-31T11:51:16.097Z,50.30
2019-03-31T11:53:46.445Z,50.00
2019-03-31T11:56:22.485Z,51.20
2019-03-31T11:58:51.367Z,50.90
2019-03-31T12:01:20.268Z,51.00
2019-03-31T12:03:49.056Z,51.00
2019-03-31T12:06:17.727Z,49.60
2019-03-31T12:08:46.616Z,49.50
2019-03-31T12:11:15.306Z,49.00
2019-03-31T12:13:43.972Z,49.70
2019-03-31T12:16:12.673Z,49.50
2019-03-31T12:18:41.460Z,50.00
2019-03-31T12:21:10.025Z,49.70
2019-03-31T12:23:38.626Z,50.00
2019-03-31T12:26:07.397Z,50.60
2019-03-31T12:28:36.093Z,50.70
2019-03-31T12:31:04.768Z,50.50
2019-03-31T12:33:33.366Z,51.60
2019-03-31T12:36:02.048Z,51.70
2019-03-31T12:38:30.728Z,50.30
2019-03-31T12:40:59.199Z,49.80
2019-03-31T12:43:27.795Z,50.00
2019-03-31T12:45:56.681Z,49.40
2019-03-31T12:48:25.368Z,49.70
2019-03-31T12:50:54.052Z,50.30
2019-03-31T12:53:22.838Z,48.90
2019-03-31T12:56:00.067Z,49.10
2019-03-31T12:58:21.950Z,49.50
2019-03-31T13:00:51.969Z,48.20
2019-03-31T13:03:20.547Z,48.40
2019-03-31T13:05:49.124Z,48.70
2019-03-31T13:08:17.716Z,48.90
2019-03-31T13:10:46.712Z,48.70
2019-03-31T13:13:15.383Z,47.80
2019-03-31T13:15:44.069Z,48.30
2019-03-31T13:18:12.757Z,47.70
2019-03-31T13:20:41.551Z,47.10
2019-03-31T13:23:10.331Z,46.70
2019-03-31T13:25:39.127Z,46.70
2019-03-31T13:28:07.810Z,47.00
2019-03-31T13:30:36.500Z,47.40
2019-03-31T13:33:05.271Z,47.10
2019-03-31T13:35:33.768Z,47.50
2019-03-31T13:38:10.915Z,47.50
2019-03-31T13:40:33.374Z,47.80
2019-03-31T13:43:01.944Z,47.90
2019-03-31T13:45:32.175Z,47.50
2019-03-31T13:48:00.963Z,47.70
2019-03-31T13:50:29.636Z,47.80
2019-03-31T13:52:58.227Z,47.60
2019-03-31T13:55:27.021Z,47.90
2019-03-31T13:57:58.085Z,47.50
2019-03-31T14:00:39.459Z,48.00
2019-03-31T14:03:08.367Z,47.70
2019-03-31T14:05:37.227Z,47.40
2019-03-31T14:08:06.115Z,47.50
2019-03-31T14:10:35.003Z,47.30
2019-03-31T14:13:04.306Z,47.10
2019-03-31T14:15:32.990Z,47.00
2019-03-31T14:18:01.675Z,47.70
2019-03-31T14:20:30.364Z,47.90
2019-03-31T14:22:59.038Z,47.70
2019-03-31T14:25:28.030Z,48.10
2019-03-31T14:27:56.919Z,48.20
2019-03-31T14:30:25.601Z,48.20
2019-03-31T14:32:54.406Z,47.90
2019-03-31T14:35:23.179Z,48.00
2019-03-31T14:37:51.747Z,48.10
2019-03-31T14:40:20.286Z,48.00
2019-03-31T14:42:48.920Z,48.10
2019-03-31T14:45:34.139Z,47.70
2019-03-31T14:48:02.783Z,47.80
2019-03-31T14:50:35.765Z,48.00
2019-03-31T14:53:04.866Z,47.90
2019-03-31T14:55:33.652Z,47.90
2019-03-31T14:58:02.333Z,48.40
2019-03-31T15:00:31.316Z,48.20
2019-03-31T15:03:00.208Z,49.40
2019-03-31T15:05:28.890Z,47.50
2019-03-31T15:07:58.628Z,46.60
2019-03-31T15:10:27.590Z,47.20
2019-03-31T15:12:56.274Z,46.10
2019-03-31T15:15:24.960Z,45.10
2019-03-31T15:17:53.850Z,45.30
2019-03-31T15:20:22.635Z,45.60
2019-03-31T15:22:51.523Z,44.30
2019-03-31T15:25:20.517Z,44.80
2019-03-31T15:27:49.307Z,45.30
2019-03-31T15:30:18.003Z,44.60
2019-03-31T15:32:46.678Z,44.30
2019-03-31T15:35:15.465Z,43.70
2019-03-31T15:37:44.246Z,43.60
2019-03-31T15:40:12.828Z,42.90
2019-03-31T15:42:41.616Z,43.90
2019-03-31T15:45:10.431Z,43.80
2019-03-31T15:47:39.104Z,43.60
2019-03-31T15:50:07.669Z,42.30
2019-03-31T15:52:36.344Z,42.50
2019-03-31T15:55:07.997Z,43.00
2019-03-31T15:57:36.744Z,43.60
2019-03-31T16:00:08.668Z,43.70
2019-03-31T16:02:37.335Z,42.40
2019-03-31T16:05:12.438Z,42.30
2019-03-31T16:07:39.527Z,42.80
2019-03-31T16:10:08.096Z,43.20
2019-03-31T16:12:36.902Z,43.60
2019-03-31T16:15:06.101Z,43.70
2019-03-31T16:17:34.914Z,44.30
2019-03-31T16:20:04.080Z,44.50
2019-03-31T16:22:32.976Z,44.80
2019-03-31T16:25:03.491Z,45.00
2019-03-31T16:27:32.080Z,45.30
2019-03-31T16:30:00.771Z,45.70
2019-03-31T16:32:29.356Z,46.00
2019-03-31T16:34:58.124Z,46.10
2019-03-31T16:37:26.812Z,46.10
2019-03-31T16:39:55.376Z,46.10
2019-03-31T16:42:24.183Z,45.90
2019-03-31T16:44:58.407Z,45.70
2019-03-31T16:47:22.966Z,45.60
2019-03-31T16:49:51.683Z,46.20
2019-03-31T16:52:20.451Z,45.80
2019-03-31T16:54:49.136Z,45.90
2019-03-31T16:57:17.822Z,46.20
2019-03-31T16:59:46.405Z,46.60
2019-03-31T17:02:14.888Z,46.60
2019-03-31T17:04:43.572Z,46.90
2019-03-31T17:07:12.271Z,46.90
2019-03-31T17:09:50.925Z,47.00
2019-03-31T17:12:11.258Z,46.80
2019-03-31T17:14:40.151Z,46.90
2019-03-31T17:17:08.835Z,46.80
2019-03-31T17:19:37.722Z,47.10
2019-03-31T17:22:06.404Z,47.30
2019-03-31T17:24:35.287Z,47.50
2019-03-31T17:27:03.980Z,47.30
2019-03-31T17:29:32.524Z,47.20
2019-03-31T17:32:01.145Z,46.90
2019-03-31T17:34:29.935Z,46.70
2019-03-31T17:36:58.617Z,46.80
2019-03-31T17:39:27.305Z,46.60
2019-03-31T17:41:55.971Z,46.40
2019-03-31T17:44:24.672Z,46.30
2019-03-31T17:46:53.251Z,46.20
2019-03-31T17:49:21.936Z,46.20
2019-03-31T17:51:50.620Z,46.20
2019-03-31T17:54:19.509Z,46.40
2019-03-31T17:56:48.091Z,46.40
2019-03-31T17:59:16.673Z,46.60
2019-03-31T18:01:45.272Z,46.70
2019-03-31T18:04:13.787Z,47.10
2019-03-31T18:06:42.529Z,47.10
2019-03-31T18:09:11.212Z,47.40
2019-03-31T18:11:39.760Z,47.50
2019-03-31T18:14:10.118Z,47.50
2019-03-31T18:16:38.679Z,48.00
2019-03-31T18:19:07.473Z,48.20
2019-03-31T18:21:36.185Z,48.40
2019-03-31T18:24:04.768Z,48.30
2019-03-31T18:26:33.432Z,48.30
2019-03-31T18:29:02.017Z,48.30
2019-03-31T18:31:30.600Z,48.20
2019-03-31T18:33:59.285Z,48.40
2019-03-31T18:36:36.380Z,48.20
2019-03-31T18:38:58.190Z,48.60
2019-03-31T18:41:26.978Z,48.60
2019-03-31T18:43:55.684Z,48.80
2019-03-31T18:46:24.392Z,48.70
2019-03-31T18:48:53.135Z,48.80
2019-03-31T18:51:22.038Z,48.90
2019-03-31T18:53:52.373Z,49.00
2019-03-31T18:56:31.142Z,49.10
2019-03-31T18:59:10.608Z,49.10
2019-03-31T19:01:49.951Z,49.30
2019-03-31T19:04:29.181Z,49.40
2019-03-31T19:07:02.429Z,49.40
2019-03-31T19:09:38.723Z,49.70
2019-03-31T19:12:20.909Z,49.70
2019-03-31T19:15:09.168Z,50.00
2019-03-31T19:17:54.814Z,50.00
2019-03-31T19:20:41.356Z,49.90
2019-03-31T19:23:28.066Z,50.00
2019-03-31T19:26:14.561Z,50.10
2019-03-31T19:28:50.516Z,50.30
2019-03-31T19:31:20.848Z,50.20
2019-03-31T19:33:57.003Z,50.30
2019-03-31T19:36:29.783Z,50.00
2019-03-31T19:39:02.874Z,50.40
2019-03-31T19:41:42.381Z,50.20
2019-03-31T19:44:19.696Z,50.50
2019-03-31T19:46:53.392Z,50.50
2019-03-31T19:49:24.361Z,50.40
2019-03-31T19:52:12.921Z,50.40
2019-03-31T19:54:49.146Z,50.40
2019-03-31T19:57:31.675Z,50.40
2019-03-31T20:00:12.219Z,50.40
2019-03-31T20:02:45.400Z,50.60
2019-03-31T20:05:21.669Z,50.70
2019-03-31T20:08:08.374Z,50.90
2019-03-31T20:10:41.160Z,50.90
2019-03-31T20:13:27.658Z,50.90
2019-03-31T20:16:02.644Z,51.00
2019-03-31T20:18:35.066Z,51.10
2019-03-31T20:21:30.982Z,51.50
2019-03-31T20:24:04.468Z,51.40
2019-03-31T20:26:43.716Z,51.20
2019-03-31T20:29:23.155Z,51.40
2019-03-31T20:31:56.358Z,51.40
2019-03-31T20:34:26.664Z,51.70
2019-03-31T20:37:07.439Z,51.60
2019-03-31T20:39:37.530Z,51.80
2019-03-31T20:42:10.549Z,51.90
2019-03-31T20:44:39.224Z,52.10
2019-03-31T20:47:07.906Z,51.90
2019-03-31T20:49:36.590Z,51.70
2019-03-31T20:52:05.176Z,51.50
2019-03-31T20:54:33.862Z,51.40
2019-03-31T20:57:02.951Z,51.30
2019-03-31T20:59:31.607Z,51.40
2019-03-31T21:02:00.371Z,51.30
2019-03-31T21:04:28.910Z,51.70
2019-03-31T21:06:57.475Z,51.90
2019-03-31T21:09:26.075Z,51.70
2019-03-31T21:11:54.697Z,51.60
2019-03-31T21:14:23.234Z,51.70
2019-03-31T21:16:51.919Z,51.60
2019-03-31T21:19:20.807Z,52.00
2019-03-31T21:21:49.996Z,51.90
2019-03-31T21:24:18.690Z,51.80
2019-03-31T21:26:47.478Z,52.20
2019-03-31T21:29:16.161Z,52.00
2019-03-31T21:31:44.698Z,52.00
2019-03-31T21:34:13.528Z,51.90
2019-03-31T21:36:42.312Z,52.00
2019-03-31T21:39:10.887Z,51.90
2019-03-31T21:41:39.482Z,51.90
2019-03-31T21:44:08.137Z,52.70
2019-03-31T21:46:36.750Z,52.00
2019-03-31T21:49:05.324Z,52.00
2019-03-31T21:51:35.225Z,52.10
2019-03-31T21:54:03.924Z,52.20
2019-03-31T21:56:32.607Z,52.00
2019-03-31T21:59:01.176Z,52.10
2019-03-31T22:01:30.081Z,52.20
2019-03-31T22:03:58.756Z,52.60
2019-03-31T22:06:27.304Z,52.40
2019-03-31T22:08:55.937Z,52.10
2019-03-31T22:11:24.616Z,52.40
2019-03-31T22:13:53.302Z,52.40
2019-03-31T22:16:21.883Z,52.50
2019-03-31T22:18:50.676Z,52.90
2019-03-31T22:21:19.374Z,52.80
2019-03-31T22:23:57.755Z,52.80
2019-03-31T22:26:19.814Z,52.70
2019-03-31T22:28:48.591Z,53.10
2019-03-31T22:31:17.474Z,53.10
2019-03-31T22:33:45.955Z,53.00
2019-03-31T22:36:24.473Z,52.70
2019-03-31T22:38:53.553Z,52.60
2019-03-31T22:41:22.154Z,52.60
2019-03-31T22:43:50.929Z,52.70
2019-03-31T22:46:19.716Z,52.70
2019-03-31T22:48:48.295Z,52.80
2019-03-31T22:51:16.812Z,52.90
2019-03-31T22:53:45.462Z,52.80
2019-03-31T22:56:14.052Z,52.80
2019-03-31T22:58:42.625Z,52.70
2019-03-31T23:01:11.311Z,52.60
2019-03-31T23:03:40.104Z,52.80
2019-03-31T23:06:08.684Z,53.10
2019-03-31T23:08:37.145Z,53.10
2019-03-31T23:11:05.875Z,53.10
2019-03-31T23:13:34.430Z,52.80
2019-03-31T23:16:03.096Z,53.00
2019-03-31T23:18:33.437Z,53.00
2019-03-31T23:21:02.128Z,53.00
2019-03-31T23:23:30.811Z,53.00
2019-03-31T23:25:59.432Z,53.10
2019-03-31T23:28:27.967Z,53.30
2019-03-31T23:30:56.546Z,53.30
2019-03-31T23:33:25.939Z,53.20
2019-03-31T23:35:54.837Z,53.00
2019-03-31T23:38:23.420Z,53.00
2019-03-31T23:40:52.208Z,52.80
2019-03-31T23:43:20.951Z,52.70
2019-03-31T23:45:49.579Z,52.60
2019-03-31T23:48:18.260Z,52.70
2019-03-31T23:50:46.843Z,52.40
2019-03-31T23:53:15.527Z,52.50
2019-03-31T23:55:44.008Z,52.40
2019-03-31T23:58:12.694Z,52.20
